Time;durP1;ratioP1;P1;durP2;ratioP2;P2;SDS_P1;SDS_P2;PMS_P1;PMS_P2;Temp;Humidity;BMP_temperature;BMP_pressure;BME280_temperature;BME280_humidity;BME280_pressure;Samples;Min_cycle;Max_cycle;Signal;HPM_P1;HPM_P2
2020/12/06 00:00:28;;;;;;;28.75;21.02;;;;;;;;;;5069449;28;20172;-75
2020/12/06 00:02:54;;;;;;;31.30;22.27;;;;;;;;;;5089668;28;20605;-77
2020/12/06 00:05:20;;;;;;;29.10;20.90;;;;;;;;;;5089174;28;20294;-74
2020/12/06 00:07:46;;;;;;;29.20;21.42;;;;;;;;;;5079121;28;20215;-75
2020/12/06 00:10:21;;;;;;;31.13;22.05;;;;;;;;;;5083325;28;20578;-77
2020/12/06 00:12:47;;;;;;;31.00;22.60;;;;;;;;;;5089334;28;20182;-75
2020/12/06 00:15:13;;;;;;;26.20;20.80;;;;;;;;;;5088845;28;20210;-76
2020/12/06 00:17:40;;;;;;;29.13;23.15;;;;;;;;;;5077632;28;20199;-76
2020/12/06 00:20:10;;;;;;;30.73;22.13;;;;;;;;;;5069199;28;20180;-75
2020/12/06 00:22:36;;;;;;;28.17;21.10;;;;;;;;;;5073671;28;20189;-74
2020/12/06 00:25:03;;;;;;;27.67;21.55;;;;;;;;;;5081433;28;20175;-75
2020/12/06 00:27:32;;;;;;;31.60;22.60;;;;;;;;;;5081468;28;20179;-76
2020/12/06 00:29:58;;;;;;;27.23;21.38;;;;;;;;;;5089107;28;20184;-77
2020/12/06 00:32:24;;;;;;;30.55;22.20;;;;;;;;;;5089461;28;20274;-77
2020/12/06 00:34:50;;;;;;;29.42;22.05;;;;;;;;;;5083072;28;20556;-78
2020/12/06 00:37:17;;;;;;;31.75;23.08;;;;;;;;;;5089100;28;20258;-75
2020/12/06 00:39:43;;;;;;;27.77;21.55;;;;;;;;;;5077510;28;20183;-75
2020/12/06 00:42:10;;;;;;;30.15;22.55;;;;;;;;;;5069126;28;20188;-74
2020/12/06 00:44:37;;;;;;;26.80;20.52;;;;;;;;;;5071587;28;20545;-77
2020/12/06 00:47:03;;;;;;;32.58;22.33;;;;;;;;;;5089791;28;20194;-73
2020/12/06 00:49:29;;;;;;;26.23;20.33;;;;;;;;;;5092974;28;20218;-73
2020/12/06 00:51:56;;;;;;;29.25;22.33;;;;;;;;;;5075616;28;20207;-77
2020/12/06 00:54:22;;;;;;;28.10;20.73;;;;;;;;;;5081011;28;20211;-74
2020/12/06 00:56:48;;;;;;;28.70;21.23;;;;;;;;;;5082273;28;20529;-74
2020/12/06 00:59:14;;;;;;;27.65;21.02;;;;;;;;;;5095235;28;20215;-75
2020/12/06 01:01:40;;;;;;;28.65;22.10;;;;;;;;;;5091972;28;20187;-75
2020/12/06 01:04:07;;;;;;;29.60;22.88;;;;;;;;;;5094797;28;20675;-73
2020/12/06 01:06:33;;;;;;;28.50;21.48;;;;;;;;;;5092105;28;20207;-74
2020/12/06 01:08:59;;;;;;;31.20;22.00;;;;;;;;;;5075870;28;20557;-74
2020/12/06 01:11:26;;;;;;;29.17;23.30;;;;;;;;;;5077400;28;20455;-74
2020/12/06 01:13:52;;;;;;;28.33;22.35;;;;;;;;;;5087962;28;20543;-74
2020/12/06 01:16:18;;;;;;;32.60;23.40;;;;;;;;;;5096398;28;20248;-76
2020/12/06 01:18:44;;;;;;;33.45;22.58;;;;;;;;;;5095911;28;20278;-75
2020/12/06 01:21:11;;;;;;;29.65;22.00;;;;;;;;;;5096211;28;20168;-74
2020/12/06 01:23:37;;;;;;;30.45;23.10;;;;;;;;;;5096034;28;20167;-73
2020/12/06 01:26:03;;;;;;;27.95;21.75;;;;;;;;;;5091676;28;20195;-72
2020/12/06 01:28:29;;;;;;;33.47;24.08;;;;;;;;;;5078959;28;20676;-75
2020/12/06 01:30:55;;;;;;;33.55;23.65;;;;;;;;;;5076391;28;20180;-77
2020/12/06 01:33:21;;;;;;;30.00;21.95;;;;;;;;;;5083894;28;20175;-75
2020/12/06 01:35:48;;;;;;;35.33;24.50;;;;;;;;;;5095318;28;20199;-73
2020/12/06 01:38:14;;;;;;;34.38;23.90;;;;;;;;;;5096013;28;20236;-72
2020/12/06 01:40:43;;;;;;;32.20;22.85;;;;;;;;;;5095794;28;20218;-75
2020/12/06 01:43:09;;;;;;;34.70;23.80;;;;;;;;;;5096341;28;20176;-75
2020/12/06 01:45:38;;;;;;;31.45;22.80;;;;;;;;;;5095691;28;20184;-73
2020/12/06 01:48:07;;;;;;;28.40;22.13;;;;;;;;;;5091231;28;20254;-76
2020/12/06 01:50:37;;;;;;;30.25;23.65;;;;;;;;;;5088300;28;20260;-73
2020/12/06 01:53:04;;;;;;;28.23;22.02;;;;;;;;;;5095839;28;20179;-73
2020/12/06 01:55:30;;;;;;;28.05;21.02;;;;;;;;;;5095140;28;20227;-75
2020/12/06 01:58:06;;;;;;;33.17;22.67;;;;;;;;;;5076424;28;20228;-74
2020/12/06 02:00:32;;;;;;;30.70;21.10;;;;;;;;;;5089388;28;20175;-75
2020/12/06 02:03:02;;;;;;;27.23;21.05;;;;;;;;;;5096196;28;20517;-77
2020/12/06 02:05:28;;;;;;;31.33;22.13;;;;;;;;;;5092820;28;20175;-75
2020/12/06 02:07:57;;;;;;;28.63;20.85;;;;;;;;;;5095464;28;20294;-73
2020/12/06 02:10:24;;;;;;;30.05;21.15;;;;;;;;;;5101967;28;20202;-73
2020/12/06 02:12:51;;;;;;;28.98;21.73;;;;;;;;;;5091586;28;20267;-75
2020/12/06 02:15:17;;;;;;;27.10;21.52;;;;;;;;;;5083385;28;20196;-74
2020/12/06 02:17:43;;;;;;;31.92;21.92;;;;;;;;;;5095333;28;20218;-75
2020/12/06 02:20:10;;;;;;;27.92;21.15;;;;;;;;;;5094673;28;20570;-74
2020/12/06 02:22:36;;;;;;;29.13;21.95;;;;;;;;;;5095183;28;20171;-74
2020/12/06 02:25:02;;;;;;;28.83;22.10;;;;;;;;;;5092559;28;20697;-75
2020/12/06 02:27:28;;;;;;;30.98;22.23;;;;;;;;;;5074557;28;20646;-75
2020/12/06 02:29:54;;;;;;;28.45;20.15;;;;;;;;;;5076655;28;20221;-72
2020/12/06 02:32:20;;;;;;;27.42;21.13;;;;;;;;;;5084024;28;20237;-76
2020/12/06 02:34:46;;;;;;;31.52;22.48;;;;;;;;;;5091466;28;20206;-74
2020/12/06 02:37:12;;;;;;;29.30;21.35;;;;;;;;;;5074601;28;20194;-74
2020/12/06 02:39:38;;;;;;;29.90;21.50;;;;;;;;;;5083442;28;20193;-75
2020/12/06 02:42:04;;;;;;;29.42;22.10;;;;;;;;;;5082668;28;20202;-74
2020/12/06 02:44:30;;;;;;;27.88;20.35;;;;;;;;;;5093741;28;20230;-73
2020/12/06 02:46:56;;;;;;;28.02;20.90;;;;;;;;;;5094776;28;20180;-74
2020/12/06 02:49:22;;;;;;;30.45;21.77;;;;;;;;;;5092597;28;20188;-72
2020/12/06 02:51:48;;;;;;;27.65;20.23;;;;;;;;;;5074018;28;20168;-76
2020/12/06 02:54:14;;;;;;;27.77;20.85;;;;;;;;;;5083248;28;20203;-75
2020/12/06 02:56:40;;;;;;;28.20;20.38;;;;;;;;;;5077683;28;20176;-75
2020/12/06 02:59:06;;;;;;;26.65;20.58;;;;;;;;;;5086694;28;20192;-75
2020/12/06 03:01:32;;;;;;;27.60;20.23;;;;;;;;;;5093664;28;20213;-76
2020/12/06 03:03:59;;;;;;;27.65;20.85;;;;;;;;;;5080659;28;20207;-77
2020/12/06 03:06:25;;;;;;;28.40;21.25;;;;;;;;;;5086978;28;20184;-73
2020/12/06 03:08:51;;;;;;;27.83;21.92;;;;;;;;;;5075297;28;20639;-74
2020/12/06 03:11:17;;;;;;;28.25;21.30;;;;;;;;;;5095623;28;20599;-74
2020/12/06 03:13:43;;;;;;;29.17;20.23;;;;;;;;;;5094366;28;20174;-75
2020/12/06 03:16:09;;;;;;;26.90;20.30;;;;;;;;;;5093585;28;20207;-73
2020/12/06 03:18:35;;;;;;;31.13;20.60;;;;;;;;;;5096050;28;20209;-76
2020/12/06 03:21:02;;;;;;;27.23;20.67;;;;;;;;;;5087090;28;20184;-76
2020/12/06 03:23:28;;;;;;;28.67;20.35;;;;;;;;;;5075553;28;20169;-73
2020/12/06 03:25:54;;;;;;;27.58;20.83;;;;;;;;;;5080283;28;20188;-72
2020/12/06 03:28:20;;;;;;;28.85;21.10;;;;;;;;;;5087096;28;20207;-74
2020/12/06 03:30:46;;;;;;;29.40;21.42;;;;;;;;;;5083193;28;20187;-76
2020/12/06 03:33:12;;;;;;;31.27;21.20;;;;;;;;;;5091536;28;20537;-74
2020/12/06 03:35:38;;;;;;;29.42;20.92;;;;;;;;;;5092181;28;20207;-75
2020/12/06 03:38:04;;;;;;;29.33;21.13;;;;;;;;;;5095139;28;20194;-74
2020/12/06 03:40:30;;;;;;;37.08;21.77;;;;;;;;;;5093316;28;20171;-71
2020/12/06 03:42:56;;;;;;;28.58;21.55;;;;;;;;;;5095007;28;20192;-73
2020/12/06 03:45:22;;;;;;;33.10;23.05;;;;;;;;;;5094390;28;20207;-73
2020/12/06 03:47:48;;;;;;;30.35;21.38;;;;;;;;;;5091413;28;20272;-76
2020/12/06 03:50:15;;;;;;;31.15;22.48;;;;;;;;;;5094602;28;20224;-73
2020/12/06 03:52:41;;;;;;;31.42;22.55;;;;;;;;;;5078480;28;20576;-76
2020/12/06 03:55:07;;;;;;;30.83;21.95;;;;;;;;;;5085902;28;20557;-74
2020/12/06 03:57:33;;;;;;;32.53;21.77;;;;;;;;;;5094106;28;20178;-77
2020/12/06 03:59:59;;;;;;;32.40;22.10;;;;;;;;;;5084786;28;20653;-76
2020/12/06 04:02:25;;;;;;;29.17;22.30;;;;;;;;;;5086932;28;20513;-73
2020/12/06 04:04:51;;;;;;;29.85;22.80;;;;;;;;;;5080289;28;20191;-73
2020/12/06 04:07:17;;;;;;;27.30;22.15;;;;;;;;;;5085818;28;20637;-74
2020/12/06 04:09:43;;;;;;;25.67;20.80;;;;;;;;;;5089383;28;20193;-76
2020/12/06 04:12:09;;;;;;;29.08;21.33;;;;;;;;;;5099202;28;20178;-74
2020/12/06 04:14:35;;;;;;;28.60;22.15;;;;;;;;;;5093298;28;20590;-76
2020/12/06 04:17:02;;;;;;;31.23;21.23;;;;;;;;;;5080767;28;20549;-75
2020/12/06 04:19:28;;;;;;;30.35;23.42;;;;;;;;;;5089731;28;20196;-74
2020/12/06 04:21:54;;;;;;;34.45;21.55;;;;;;;;;;5098013;28;20167;-75
2020/12/06 04:24:20;;;;;;;29.30;18.80;;;;;;;;;;5091304;28;20569;-76
2020/12/06 04:26:46;;;;;;;34.13;24.10;;;;;;;;;;5087138;28;20213;-73
2020/12/06 04:29:12;;;;;;;33.33;23.95;;;;;;;;;;5097188;28;20302;-76
2020/12/06 04:31:38;;;;;;;31.88;24.58;;;;;;;;;;5084047;28;20180;-77
2020/12/06 04:34:04;;;;;;;34.13;24.20;;;;;;;;;;5095846;28;20176;-75
2020/12/06 04:36:30;;;;;;;34.08;24.10;;;;;;;;;;5084259;28;20267;-76
2020/12/06 04:38:56;;;;;;;30.70;23.55;;;;;;;;;;5079444;28;20202;-75
2020/12/06 04:41:23;;;;;;;33.90;22.83;;;;;;;;;;5085345;28;20229;-73
2020/12/06 04:43:49;;;;;;;33.83;24.50;;;;;;;;;;5096724;28;20191;-74
2020/12/06 04:46:15;;;;;;;33.97;23.98;;;;;;;;;;5097052;28;20181;-74
2020/12/06 04:49:00;;;;;;;32.67;23.00;;;;;;;;;;5093401;28;20196;-77
2020/12/06 04:51:28;;;;;;;32.80;23.50;;;;;;;;;;5091669;28;20187;-75
2020/12/06 04:54:04;;;;;;;32.95;24.38;;;;;;;;;;5084441;28;20190;-74
2020/12/06 04:56:30;;;;;;;36.80;26.55;;;;;;;;;;5084254;28;20220;-74
2020/12/06 04:59:00;;;;;;;35.67;24.95;;;;;;;;;;5097167;28;20199;-74
2020/12/06 05:01:46;;;;;;;35.25;24.92;;;;;;;;;;5096522;28;20671;-73
2020/12/06 05:04:13;;;;;;;33.03;23.77;;;;;;;;;;5095346;28;20221;-74
2020/12/06 05:06:40;;;;;;;32.72;24.60;;;;;;;;;;5096642;28;20194;-74
2020/12/06 05:09:13;;;;;;;36.88;25.88;;;;;;;;;;5079334;28;20207;-75
2020/12/06 05:11:40;;;;;;;35.60;24.42;;;;;;;;;;5087926;28;20183;-76
2020/12/06 05:14:06;;;;;;;32.70;23.83;;;;;;;;;;5093104;28;20175;-73
2020/12/06 05:16:36;;;;;;;31.95;23.65;;;;;;;;;;5096487;28;20175;-71
2020/12/06 05:19:03;;;;;;;36.03;25.95;;;;;;;;;;5090535;28;20192;-74
2020/12/06 05:21:36;;;;;;;31.05;23.67;;;;;;;;;;5096100;28;20186;-75
2020/12/06 05:24:02;;;;;;;29.90;22.13;;;;;;;;;;5096219;28;20168;-76
2020/12/06 05:26:28;;;;;;;32.90;24.40;;;;;;;;;;5097287;28;20605;-74
2020/12/06 05:28:55;;;;;;;30.67;22.23;;;;;;;;;;5097622;28;20196;-73
2020/12/06 05:31:24;;;;;;;33.80;23.58;;;;;;;;;;5095745;28;20187;-73
2020/12/06 05:33:50;;;;;;;33.08;22.52;;;;;;;;;;5089228;28;20190;-76
2020/12/06 05:36:17;;;;;;;33.63;23.58;;;;;;;;;;5095795;28;20199;-77
2020/12/06 05:38:43;;;;;;;34.33;23.23;;;;;;;;;;5088207;28;20526;-72
2020/12/06 05:41:09;;;;;;;30.80;22.52;;;;;;;;;;5093942;28;20193;-76
2020/12/06 05:43:35;;;;;;;31.45;23.80;;;;;;;;;;5095781;28;20208;-73
2020/12/06 05:46:06;;;;;;;31.52;22.77;;;;;;;;;;5096874;28;20179;-72
2020/12/06 05:48:32;;;;;;;34.72;23.98;;;;;;;;;;5092983;28;20667;-75
2020/12/06 05:50:58;;;;;;;30.77;21.30;;;;;;;;;;5091584;28;20171;-73
2020/12/06 05:53:26;;;;;;;32.88;23.75;;;;;;;;;;5075845;28;20176;-75
2020/12/06 05:55:55;;;;;;;31.27;23.10;;;;;;;;;;5082799;28;20252;-76
2020/12/06 05:58:22;;;;;;;31.05;22.50;;;;;;;;;;5080117;28;20191;-76
2020/12/06 06:00:49;;;;;;;33.60;23.48;;;;;;;;;;5095952;28;20254;-73
2020/12/06 06:03:15;;;;;;;30.40;21.58;;;;;;;;;;5095931;28;20191;-75
2020/12/06 06:05:44;;;;;;;31.90;23.17;;;;;;;;;;5091781;28;20190;-72
2020/12/06 06:08:10;;;;;;;32.45;22.25;;;;;;;;;;5095516;28;20218;-73
2020/12/06 06:10:39;;;;;;;33.28;23.63;;;;;;;;;;5097033;28;20519;-73
2020/12/06 06:13:07;;;;;;;33.40;23.17;;;;;;;;;;5085778;28;20201;-73
2020/12/06 06:15:34;;;;;;;32.53;22.50;;;;;;;;;;5077797;28;20207;-77
2020/12/06 06:18:01;;;;;;;35.53;24.33;;;;;;;;;;5089868;28;20187;-74
2020/12/06 06:20:29;;;;;;;34.60;24.63;;;;;;;;;;5089784;28;20580;-75
2020/12/06 06:22:55;;;;;;;31.70;23.17;;;;;;;;;;5095043;28;20172;-72
2020/12/06 06:25:21;;;;;;;35.97;24.50;;;;;;;;;;5094862;28;20183;-74
2020/12/06 06:27:49;;;;;;;37.47;24.08;;;;;;;;;;5083721;28;20228;-75
2020/12/06 06:30:17;;;;;;;36.60;24.60;;;;;;;;;;5076226;28;20180;-74
2020/12/06 06:32:43;;;;;;;31.75;23.25;;;;;;;;;;5075190;28;20191;-73
2020/12/06 06:35:10;;;;;;;33.10;23.92;;;;;;;;;;5088538;28;20203;-73
2020/12/06 06:37:37;;;;;;;35.08;24.52;;;;;;;;;;5074716;28;20191;-77
2020/12/06 06:40:07;;;;;;;34.58;23.38;;;;;;;;;;5081983;28;20576;-74
2020/12/06 06:42:35;;;;;;;34.95;24.35;;;;;;;;;;5094708;28;20529;-75
2020/12/06 06:45:07;;;;;;;31.15;23.10;;;;;;;;;;5093329;28;20183;-75
2020/12/06 06:47:40;;;;;;;33.70;23.35;;;;;;;;;;5094373;28;20574;-72
2020/12/06 06:50:08;;;;;;;36.53;24.45;;;;;;;;;;5092481;28;20289;-75
2020/12/06 06:52:34;;;;;;;34.70;24.65;;;;;;;;;;5078988;28;20543;-76
2020/12/06 06:55:01;;;;;;;32.72;23.90;;;;;;;;;;5073823;28;20196;-76
2020/12/06 06:57:28;;;;;;;34.72;25.35;;;;;;;;;;5074283;28;20176;-76
2020/12/06 06:59:54;;;;;;;37.72;24.42;;;;;;;;;;5082551;28;20519;-73
2020/12/06 07:02:21;;;;;;;32.60;23.67;;;;;;;;;;5077085;28;20533;-74
2020/12/06 07:04:48;;;;;;;37.50;25.17;;;;;;;;;;5078351;28;20180;-74
2020/12/06 07:07:15;;;;;;;35.28;25.13;;;;;;;;;;5094351;28;20536;-75
2020/12/06 07:09:42;;;;;;;37.45;23.95;;;;;;;;;;5093576;28;20306;-75
2020/12/06 07:12:09;;;;;;;38.80;25.45;;;;;;;;;;5091823;28;20225;-75
2020/12/06 07:14:35;;;;;;;36.92;25.90;;;;;;;;;;5093037;28;20195;-74
2020/12/06 07:17:01;;;;;;;36.30;25.20;;;;;;;;;;5091662;28;20182;-75
2020/12/06 07:19:27;;;;;;;36.72;24.35;;;;;;;;;;5086693;28;20217;-73
2020/12/06 07:21:53;;;;;;;41.65;27.05;;;;;;;;;;5089576;28;20179;-75
2020/12/06 07:24:19;;;;;;;41.13;26.67;;;;;;;;;;5093496;28;20182;-75
2020/12/06 07:26:46;;;;;;;35.35;24.90;;;;;;;;;;5093897;28;20636;-74
2020/12/06 07:29:13;;;;;;;36.20;25.33;;;;;;;;;;5084645;28;20200;-74
2020/12/06 07:31:39;;;;;;;36.97;25.63;;;;;;;;;;5076875;28;20180;-77
2020/12/06 07:34:06;;;;;;;36.10;26.17;;;;;;;;;;5074653;28;20507;-73
2020/12/06 07:36:32;;;;;;;40.40;27.35;;;;;;;;;;5093717;28;20188;-74
2020/12/06 07:38:59;;;;;;;36.58;25.38;;;;;;;;;;5092389;28;20594;-73
2020/12/06 07:41:25;;;;;;;37.75;26.75;;;;;;;;;;5081525;28;20179;-75
2020/12/06 07:43:54;;;;;;;39.22;26.42;;;;;;;;;;5074828;28;20263;-75
2020/12/06 07:46:21;;;;;;;39.75;27.48;;;;;;;;;;5076837;28;20184;-74
2020/12/06 07:48:48;;;;;;;50.63;32.70;;;;;;;;;;5080619;28;20672;-74
2020/12/06 07:51:14;;;;;;;40.58;26.67;;;;;;;;;;5089323;28;20176;-73
2020/12/06 07:53:47;;;;;;;42.45;26.92;;;;;;;;;;5072948;28;20510;-75
2020/12/06 07:56:14;;;;;;;40.70;29.45;;;;;;;;;;5073092;28;20298;-75
2020/12/06 07:58:44;;;;;;;38.67;27.20;;;;;;;;;;5087485;28;20548;-76
2020/12/06 08:01:10;;;;;;;38.10;26.25;;;;;;;;;;5087645;28;20267;-76
2020/12/06 08:03:36;;;;;;;40.42;28.13;;;;;;;;;;5084067;28;20186;-77
2020/12/06 08:06:05;;;;;;;45.20;28.20;;;;;;;;;;5089842;28;20232;-75
2020/12/06 08:08:34;;;;;;;35.83;26.02;;;;;;;;;;5079806;28;20581;-76
2020/12/06 08:11:01;;;;;;;41.05;27.33;;;;;;;;;;5090089;28;20594;-73
2020/12/06 08:13:27;;;;;;;42.92;28.33;;;;;;;;;;5086676;28;20179;-72
2020/12/06 08:15:53;;;;;;;38.00;27.40;;;;;;;;;;5079788;28;20188;-72
2020/12/06 08:18:19;;;;;;;37.38;26.75;;;;;;;;;;5083498;28;20321;-75
2020/12/06 08:20:55;;;;;;;40.08;26.75;;;;;;;;;;5087427;28;20172;-71
2020/12/06 08:23:31;;;;;;;35.90;25.73;;;;;;;;;;5093191;28;20608;-74
2020/12/06 08:25:57;;;;;;;38.40;25.55;;;;;;;;;;5093113;28;20182;-71
2020/12/06 08:28:23;;;;;;;40.50;27.25;;;;;;;;;;5076687;28;20199;-74
2020/12/06 08:30:49;;;;;;;43.80;29.35;;;;;;;;;;5077215;28;20632;-74
2020/12/06 08:33:22;;;;;;;37.55;27.33;;;;;;;;;;5076977;28;20575;-75
2020/12/06 08:35:51;;;;;;;39.22;26.80;;;;;;;;;;5087177;28;20230;-76
2020/12/06 08:38:21;;;;;;;39.33;26.92;;;;;;;;;;5075719;28;20196;-76
2020/12/06 08:41:02;;;;;;;36.08;25.10;;;;;;;;;;5087580;28;20176;-72
2020/12/06 08:43:47;;;;;;;35.80;25.58;;;;;;;;;;5092666;28;20175;-75
2020/12/06 08:46:15;;;;;;;36.80;25.48;;;;;;;;;;5084571;28;20183;-76
2020/12/06 08:48:41;;;;;;;37.97;25.52;;;;;;;;;;5083959;28;20196;-74
2020/12/06 08:51:22;;;;;;;41.22;27.20;;;;;;;;;;5092436;28;20571;-74
2020/12/06 08:53:48;;;;;;;40.55;25.50;;;;;;;;;;5092614;28;20652;-77
2020/12/06 08:56:29;;;;;;;38.05;25.85;;;;;;;;;;5086613;28;20195;-75
2020/12/06 08:58:56;;;;;;;38.10;25.92;;;;;;;;;;5078369;28;20196;-77
2020/12/06 09:01:22;;;;;;;39.42;26.35;;;;;;;;;;5072441;28;20172;-75
2020/12/06 09:03:48;;;;;;;40.60;26.50;;;;;;;;;;5084340;28;20557;-75
2020/12/06 09:06:18;;;;;;;37.17;26.23;;;;;;;;;;5093097;28;20174;-77
2020/12/06 09:08:44;;;;;;;40.30;26.50;;;;;;;;;;5085809;28;20222;-75
2020/12/06 09:11:28;;;;;;;36.90;26.40;;;;;;;;;;5093144;28;20217;-77
2020/12/06 09:13:54;;;;;;;39.83;26.80;;;;;;;;;;5089935;28;20182;-78
2020/12/06 09:16:20;;;;;;;36.65;25.80;;;;;;;;;;5085580;28;20191;-74
2020/12/06 09:18:46;;;;;;;36.53;26.08;;;;;;;;;;5076122;28;20207;-72
2020/12/06 09:21:14;;;;;;;39.00;25.13;;;;;;;;;;5076045;28;20554;-73
2020/12/06 09:23:40;;;;;;;38.97;26.38;;;;;;;;;;5075884;28;20218;-76
2020/12/06 09:26:06;;;;;;;33.92;26.08;;;;;;;;;;5074602;28;20184;-76
2020/12/06 09:28:33;;;;;;;37.65;26.60;;;;;;;;;;5075712;28;20238;-74
2020/12/06 09:30:59;;;;;;;37.33;25.85;;;;;;;;;;5078298;28;20188;-76
2020/12/06 09:33:25;;;;;;;41.45;27.13;;;;;;;;;;5075659;28;20188;-74
2020/12/06 09:35:51;;;;;;;36.78;25.75;;;;;;;;;;5075373;28;20200;-76
2020/12/06 09:38:17;;;;;;;36.30;26.45;;;;;;;;;;5075730;28;20215;-75
2020/12/06 09:40:44;;;;;;;37.40;25.80;;;;;;;;;;5075597;28;20206;-73
2020/12/06 09:43:10;;;;;;;36.38;25.30;;;;;;;;;;5079669;28;20171;-73
2020/12/06 09:45:36;;;;;;;38.85;25.20;;;;;;;;;;5086791;28;20254;-72
2020/12/06 09:48:02;;;;;;;35.75;25.08;;;;;;;;;;5094527;28;20204;-72
2020/12/06 09:50:28;;;;;;;36.78;24.48;;;;;;;;;;5098975;28;20560;-76
2020/12/06 09:52:54;;;;;;;35.42;25.48;;;;;;;;;;5095597;28;20516;-75
2020/12/06 09:55:20;;;;;;;34.35;24.48;;;;;;;;;;5095056;28;20274;-74
2020/12/06 09:57:46;;;;;;;36.70;25.45;;;;;;;;;;5076899;28;20685;-75
2020/12/06 10:00:12;;;;;;;35.72;26.27;;;;;;;;;;5075287;28;20182;-74
2020/12/06 10:02:38;;;;;;;31.95;23.33;;;;;;;;;;5074163;28;20212;-75
2020/12/06 10:05:04;;;;;;;35.65;25.45;;;;;;;;;;5074811;28;20229;-74
2020/12/06 10:07:31;;;;;;;31.77;24.23;;;;;;;;;;5075113;28;20594;-74
2020/12/06 10:09:57;;;;;;;33.55;24.08;;;;;;;;;;5088119;28;20594;-76
2020/12/06 10:12:23;;;;;;;38.63;25.63;;;;;;;;;;5082209;28;20192;-75
2020/12/06 10:14:49;;;;;;;35.72;24.98;;;;;;;;;;5084408;28;20207;-77
2020/12/06 10:17:15;;;;;;;34.83;26.45;;;;;;;;;;5075349;28;20172;-73
2020/12/06 10:19:41;;;;;;;38.45;26.70;;;;;;;;;;5075362;28;20770;-76
2020/12/06 10:22:07;;;;;;;35.10;25.20;;;;;;;;;;5074874;28;20230;-73
2020/12/06 10:24:33;;;;;;;33.35;24.85;;;;;;;;;;5075396;28;20179;-74
2020/12/06 10:26:59;;;;;;;34.75;25.77;;;;;;;;;;5075233;28;20180;-76
2020/12/06 10:29:25;;;;;;;32.55;24.35;;;;;;;;;;5074885;28;20208;-75
2020/12/06 10:31:52;;;;;;;34.22;25.33;;;;;;;;;;5074827;28;20590;-76
2020/12/06 10:34:18;;;;;;;31.52;24.95;;;;;;;;;;5074280;28;20311;-76
2020/12/06 10:36:49;;;;;;;34.78;25.33;;;;;;;;;;5074898;28;20188;-74
2020/12/06 10:39:15;;;;;;;36.08;25.55;;;;;;;;;;5075200;28;20203;-73
2020/12/06 10:41:41;;;;;;;37.00;27.35;;;;;;;;;;5093546;28;20171;-76
2020/12/06 10:44:07;;;;;;;34.15;24.92;;;;;;;;;;5094468;28;20199;-75
2020/12/06 10:46:33;;;;;;;34.88;26.85;;;;;;;;;;5094622;28;20673;-74
2020/12/06 10:48:59;;;;;;;37.83;27.35;;;;;;;;;;5083054;28;20188;-75
2020/12/06 10:51:25;;;;;;;37.08;26.52;;;;;;;;;;5092669;28;20221;-73
2020/12/06 10:53:51;;;;;;;37.20;27.08;;;;;;;;;;5094057;28;20203;-74
2020/12/06 10:56:19;;;;;;;35.47;26.58;;;;;;;;;;5094643;28;20195;-75
2020/12/06 10:58:45;;;;;;;37.83;26.13;;;;;;;;;;5082610;28;20207;-75
2020/12/06 11:01:11;;;;;;;33.28;25.02;;;;;;;;;;5092674;28;20167;-75
2020/12/06 11:03:37;;;;;;;36.60;27.20;;;;;;;;;;5093951;28;20190;-74
2020/12/06 11:06:03;;;;;;;34.53;26.58;;;;;;;;;;5094340;28;20570;-74
2020/12/06 11:08:29;;;;;;;37.75;28.30;;;;;;;;;;5093991;28;20549;-76
2020/12/06 11:10:55;;;;;;;39.80;26.85;;;;;;;;;;5097845;28;20187;-76
2020/12/06 11:13:21;;;;;;;34.75;26.52;;;;;;;;;;5083157;28;20175;-77
2020/12/06 11:15:47;;;;;;;36.22;27.08;;;;;;;;;;5093664;28;20209;-74
2020/12/06 11:18:14;;;;;;;37.05;25.92;;;;;;;;;;5094179;28;20219;-75
2020/12/06 11:20:40;;;;;;;38.47;26.42;;;;;;;;;;5094164;28;20591;-76
2020/12/06 11:23:06;;;;;;;38.58;26.08;;;;;;;;;;5094122;28;20533;-74
2020/12/06 11:25:32;;;;;;;38.05;27.17;;;;;;;;;;5093627;28;20540;-77
2020/12/06 11:27:58;;;;;;;38.40;26.55;;;;;;;;;;5094130;28;20196;-74
2020/12/06 11:30:24;;;;;;;35.80;27.02;;;;;;;;;;5093128;28;20178;-77
2020/12/06 11:32:50;;;;;;;35.25;28.58;;;;;;;;;;5093784;28;20216;-73
2020/12/06 11:35:16;;;;;;;36.00;27.50;;;;;;;;;;5089157;28;20196;-76
2020/12/06 11:37:42;;;;;;;37.42;27.63;;;;;;;;;;5084305;28;20530;-74
2020/12/06 11:40:08;;;;;;;36.75;27.88;;;;;;;;;;5093390;28;20172;-75
2020/12/06 11:42:34;;;;;;;35.58;25.95;;;;;;;;;;5093532;28;20636;-75
2020/12/06 11:45:00;;;;;;;36.63;28.30;;;;;;;;;;5093156;28;20186;-75
2020/12/06 11:47:26;;;;;;;38.33;27.25;;;;;;;;;;5081283;28;20184;-73
2020/12/06 11:49:52;;;;;;;39.78;27.48;;;;;;;;;;5079253;28;20174;-73
2020/12/06 11:52:19;;;;;;;38.08;27.98;;;;;;;;;;5081681;28;20263;-74
2020/12/06 11:54:45;;;;;;;34.75;25.90;;;;;;;;;;5094662;28;20195;-76
2020/12/06 11:57:11;;;;;;;37.15;27.30;;;;;;;;;;5093988;28;20171;-76
2020/12/06 11:59:37;;;;;;;38.13;26.23;;;;;;;;;;5093788;28;20206;-73
2020/12/06 12:02:03;;;;;;;35.05;25.90;;;;;;;;;;5093295;28;20167;-74
2020/12/06 12:04:29;;;;;;;32.70;26.08;;;;;;;;;;5092942;28;20217;-75
2020/12/06 12:06:55;;;;;;;35.60;27.60;;;;;;;;;;5093516;28;20168;-74
2020/12/06 12:09:21;;;;;;;37.75;28.88;;;;;;;;;;5089912;28;20722;-76
2020/12/06 12:11:47;;;;;;;36.33;28.25;;;;;;;;;;5086290;28;20198;-74
2020/12/06 12:14:13;;;;;;;37.53;29.08;;;;;;;;;;5089294;28;20214;-75
2020/12/06 12:16:42;;;;;;;39.45;27.65;;;;;;;;;;5093195;28;20214;-76
2020/12/06 12:19:08;;;;;;;37.92;28.17;;;;;;;;;;5093304;28;20195;-74
2020/12/06 12:21:35;;;;;;;39.63;27.80;;;;;;;;;;5093286;28;20178;-77
2020/12/06 12:24:01;;;;;;;37.75;27.20;;;;;;;;;;5092735;28;20168;-76
2020/12/06 12:26:27;;;;;;;38.63;26.80;;;;;;;;;;5093299;28;20499;-76
2020/12/06 12:28:53;;;;;;;40.22;28.48;;;;;;;;;;5072626;28;20196;-75
2020/12/06 12:31:19;;;;;;;34.03;25.95;;;;;;;;;;5072935;28;20176;-74
2020/12/06 12:33:45;;;;;;;37.00;27.92;;;;;;;;;;5072840;28;20172;-74
2020/12/06 12:36:12;;;;;;;38.20;27.35;;;;;;;;;;5071396;28;20267;-77
2020/12/06 12:38:38;;;;;;;38.05;27.85;;;;;;;;;;5072838;28;20220;-77
2020/12/06 12:41:04;;;;;;;39.83;27.40;;;;;;;;;;5087967;28;20624;-75
2020/12/06 12:43:30;;;;;;;37.58;27.95;;;;;;;;;;5096801;28;20168;-77
2020/12/06 12:45:56;;;;;;;36.08;28.30;;;;;;;;;;5096883;28;20211;-74
2020/12/06 12:48:22;;;;;;;38.30;28.05;;;;;;;;;;5089644;28;20200;-73
2020/12/06 12:50:48;;;;;;;40.45;28.75;;;;;;;;;;5089784;28;20183;-75
2020/12/06 12:53:14;;;;;;;35.95;27.50;;;;;;;;;;5083625;28;20174;-75
2020/12/06 12:55:40;;;;;;;39.53;27.77;;;;;;;;;;5096505;28;20606;-75
2020/12/06 12:58:06;;;;;;;40.03;28.45;;;;;;;;;;5089686;28;20202;-75
2020/12/06 13:00:32;;;;;;;35.47;27.30;;;;;;;;;;5090573;28;20555;-75
2020/12/06 13:02:58;;;;;;;38.58;27.77;;;;;;;;;;5089519;28;20176;-76
2020/12/06 13:05:25;;;;;;;38.97;27.85;;;;;;;;;;5089822;28;20184;-74
2020/12/06 13:07:51;;;;;;;35.33;26.90;;;;;;;;;;5094924;28;20302;-76
2020/12/06 13:10:17;;;;;;;37.30;28.60;;;;;;;;;;5105479;28;20231;-74
2020/12/06 13:12:43;;;;;;;39.20;28.90;;;;;;;;;;5080128;28;20176;-75
2020/12/06 13:15:09;;;;;;;38.28;27.48;;;;;;;;;;5096257;28;20248;-76
2020/12/06 13:17:35;;;;;;;41.67;28.55;;;;;;;;;;5095225;28;20210;-78
2020/12/06 13:20:01;;;;;;;40.42;27.85;;;;;;;;;;5096311;28;20175;-74
2020/12/06 13:22:28;;;;;;;39.35;28.83;;;;;;;;;;5096247;28;20363;-75
2020/12/06 13:24:54;;;;;;;38.20;28.80;;;;;;;;;;5095510;28;20190;-75
2020/12/06 13:27:21;;;;;;;40.80;28.35;;;;;;;;;;5075497;28;20206;-73
2020/12/06 13:29:48;;;;;;;37.40;28.20;;;;;;;;;;5075899;28;20591;-76
2020/12/06 13:32:14;;;;;;;40.45;28.92;;;;;;;;;;5075773;28;20251;-72
2020/12/06 13:34:40;;;;;;;38.60;28.40;;;;;;;;;;5075230;28;20207;-75
2020/12/06 13:37:07;;;;;;;39.42;29.13;;;;;;;;;;5075570;28;20552;-74
2020/12/06 13:39:33;;;;;;;41.38;27.80;;;;;;;;;;5074116;28;20204;-74
2020/12/06 13:42:00;;;;;;;39.75;29.85;;;;;;;;;;5083371;28;20182;-75
2020/12/06 13:44:26;;;;;;;38.28;29.77;;;;;;;;;;5095299;28;20171;-73
2020/12/06 13:46:52;;;;;;;44.88;29.17;;;;;;;;;;5094389;28;20641;-75
2020/12/06 13:49:18;;;;;;;41.10;29.70;;;;;;;;;;5095390;28;20204;-74
2020/12/06 13:51:45;;;;;;;42.28;29.65;;;;;;;;;;5095886;28;20179;-74
2020/12/06 13:54:11;;;;;;;43.80;29.90;;;;;;;;;;5080975;28;20165;-73
2020/12/06 13:56:37;;;;;;;42.10;29.80;;;;;;;;;;5087897;28;20199;-73
2020/12/06 13:59:03;;;;;;;42.08;29.58;;;;;;;;;;5084513;28;20218;-75
2020/12/06 14:01:29;;;;;;;39.53;29.27;;;;;;;;;;5085710;28;20180;-77
2020/12/06 14:03:55;;;;;;;35.95;26.55;;;;;;;;;;5074774;28;20534;-74
2020/12/06 14:06:21;;;;;;;39.47;28.95;;;;;;;;;;5083327;28;20186;-76
2020/12/06 14:08:47;;;;;;;41.40;30.38;;;;;;;;;;5095230;28;20210;-75
2020/12/06 14:11:16;;;;;;;40.70;28.58;;;;;;;;;;5097320;28;20176;-80
2020/12/06 14:13:42;;;;;;;34.42;27.05;;;;;;;;;;5086605;28;20266;-78